Time;durP1;ratioP1;P1;durP2;ratioP2;P2;SDS_P1;SDS_P2;PMS_P1;PMS_P2;Temp;Humidity;BMP_temperature;BMP_pressure;BME280_temperature;BME280_humidity;BME280_pressure;Samples;Min_cycle;Max_cycle;Signal;HPM_P1;HPM_P2
2023/03/26 00:01:38;;;;;;;;;;;;;;;6.39;100.00;95953.00;5036515;28;19979;-88
2023/03/26 00:04:06;;;;;;;;;;;;;;;6.34;100.00;95935.91;5069888;28;19955;-89
2023/03/26 00:06:35;;;;;;;;;;;;;;;6.28;100.00;95931.41;5073927;28;19925;-89
2023/03/26 00:09:03;;;;;;;;;;;;;;;6.27;100.00;95922.56;5038990;28;19932;-89
2023/03/26 00:11:31;;;;;;;;;;;;;;;6.32;100.00;95929.94;5051575;28;19929;-89
2023/03/26 00:13:57;;;;;;;;;;;;;;;6.36;100.00;95907.03;5043808;28;19974;-89
2023/03/26 00:16:25;;;;;;;;;;;;;;;6.40;100.00;95902.88;5040055;28;19925;-90
2023/03/26 00:18:52;;;;;;;;;;;;;;;6.41;100.00;95899.97;5040257;28;19929;-88
2023/03/26 00:21:20;;;;;;;;;;;;;;;6.43;100.00;95897.09;5038764;28;19925;-89
2023/03/26 00:23:48;;;;;;;;;;;;;;;6.54;100.00;95891.03;5041433;28;19932;-88
2023/03/26 00:26:16;;;;;;;;;;;;;;;6.46;100.00;95897.47;5048157;28;19931;-87
2023/03/26 00:28:44;;;;;;;;;;;;;;;6.38;100.00;95913.00;5071883;28;19929;-89
2023/03/26 00:31:12;;;;;;;;;;;;;;;6.40;100.00;95902.88;5051131;28;19931;-84
2023/03/26 00:33:40;;;;;;;;;;;;;;;6.44;100.00;95891.53;5039998;28;19925;-89
2023/03/26 00:36:08;;;;;;;;;;;;;;;6.41;100.00;95891.13;5031079;28;19979;-87
2023/03/26 00:38:37;;;;;;;;;;;;;;;6.41;100.00;95897.31;5057543;28;20024;-89
2023/03/26 00:41:05;;;;;;;;;;;;;;;6.41;100.00;95897.31;5054808;28;20003;-89
2023/03/26 00:43:33;;;;;;;;;;;;;;;6.42;100.00;95890.06;5080483;28;19925;-89
2023/03/26 00:46:01;;;;;;;;;;;;;;;6.47;100.00;95900.97;5040237;28;19932;-89
2023/03/26 00:48:29;;;;;;;;;;;;;;;6.47;100.00;95906.34;5042623;28;19924;-89
2023/03/26 00:50:56;;;;;;;;;;;;;;;6.49;100.00;95909.63;5049654;28;19929;-89
2023/03/26 00:53:26;;;;;;;;;;;;;;;6.53;100.00;95910.03;5038791;28;20015;-89
2023/03/26 00:55:53;;;;;;;;;;;;;;;6.51;100.00;95918.28;5054333;28;19925;-88
2023/03/26 00:58:21;;;;;;;;;;;;;;;6.56;100.00;95918.44;5071793;28;19925;-88
2023/03/26 01:00:50;;;;;;;;;;;;;;;6.53;100.00;95905.50;5037820;28;19976;-89
2023/03/26 01:03:19;;;;;;;;;;;;;;;6.44;100.00;95901.41;5067732;28;19958;-88
2023/03/26 01:05:51;;;;;;;;;;;;;;;6.46;100.00;95910.09;5064544;28;19929;-88
2023/03/26 01:08:27;;;;;;;;;;;;;;;6.49;100.00;95928.41;5070074;28;19928;-88
2023/03/26 01:11:01;;;;;;;;;;;;;;;6.52;100.00;95900.34;5039234;28;19926;-88
2023/03/26 01:13:29;;;;;;;;;;;;;;;6.52;100.00;95905.69;5070537;28;19929;-88
2023/03/26 01:15:56;;;;;;;;;;;;;;;6.54;100.00;95911.69;5061693;28;19925;-89
2023/03/26 01:18:25;;;;;;;;;;;;;;;6.56;100.00;95909.59;5057544;28;19925;-87
2023/03/26 01:20:57;;;;;;;;;;;;;;;6.54;100.00;95883.00;5074189;28;19925;-88
2023/03/26 01:23:27;;;;;;;;;;;;;;;6.53;100.00;95872.47;5044200;28;19955;-88
2023/03/26 01:25:59;;;;;;;;;;;;;;;6.54;100.00;95888.38;5076226;28;19936;-89
2023/03/26 01:28:29;;;;;;;;;;;;;;;6.51;100.00;95888.78;5045885;28;19925;-87
2023/03/26 01:31:02;;;;;;;;;;;;;;;6.51;100.00;95875.38;5067458;28;19925;-88
2023/03/26 01:33:35;;;;;;;;;;;;;;;6.52;100.00;95870.84;5036104;28;19931;-88
2023/03/26 01:36:04;;;;;;;;;;;;;;;6.43;100.00;95856.88;5039981;28;20066;-88
2023/03/26 01:38:34;;;;;;;;;;;;;;;6.47;100.00;95855.38;5073895;28;19925;-89
2023/03/26 01:41:05;;;;;;;;;;;;;;;6.46;100.00;95851.06;5076602;28;19933;-89
2023/03/26 01:43:35;;;;;;;;;;;;;;;6.54;100.00;95848.13;5074346;28;20015;-88
2023/03/26 01:46:04;;;;;;;;;;;;;;;6.47;100.00;95836.59;5075473;28;19951;-89
2023/03/26 01:48:33;;;;;;;;;;;;;;;6.43;100.00;95820.16;5046057;28;19929;-87
2023/03/26 01:51:00;;;;;;;;;;;;;;;6.42;100.00;95826.53;5048911;28;19933;-89
2023/03/26 01:53:28;;;;;;;;;;;;;;;6.39;100.00;95824.28;5041577;28;19931;-89
2023/03/26 01:56:02;;;;;;;;;;;;;;;6.33;100.00;95827.00;5069829;28;19933;-88
2023/03/26 01:58:35;;;;;;;;;;;;;;;6.32;100.00;95826.19;5069169;28;19925;-89
2023/03/26 02:01:06;;;;;;;;;;;;;;;6.35;100.00;95822.25;5047070;28;19925;-88
2023/03/26 02:03:38;;;;;;;;;;;;;;;6.35;100.00;95814.22;5067879;28;19925;-90
2023/03/26 02:06:08;;;;;;;;;;;;;;;6.32;100.00;95804.75;5083218;28;19982;-87
2023/03/26 02:08:37;;;;;;;;;;;;;;;6.31;100.00;95794.22;5048524;28;19933;-88
2023/03/26 02:11:09;;;;;;;;;;;;;;;6.28;100.00;95797.38;5078745;28;19929;-90
2023/03/26 02:13:37;;;;;;;;;;;;;;;6.25;100.00;95790.56;5052444;28;19931;-89
2023/03/26 02:16:05;;;;;;;;;;;;;;;6.28;100.00;95784.78;5053500;28;19931;-88
2023/03/26 02:18:36;;;;;;;;;;;;;;;6.31;100.00;95788.88;5045868;28;19925;-90
2023/03/26 02:21:04;;;;;;;;;;;;;;;6.31;100.00;95786.19;5050638;28;19968;-88
2023/03/26 02:23:34;;;;;;;;;;;;;;;6.31;100.00;95762.06;5056684;28;19925;-88
2023/03/26 02:26:02;;;;;;;;;;;;;;;6.30;100.00;95750.50;5052681;28;20016;-88
2023/03/26 02:28:29;;;;;;;;;;;;;;;6.27;100.00;95740.25;5042059;28;21687;-88
2023/03/26 02:31:00;;;;;;;;;;;;;;;6.17;100.00;95728.34;5069993;28;19931;-89
2023/03/26 02:33:28;;;;;;;;;;;;;;;6.08;100.00;95728.63;5040913;28;19925;-89
2023/03/26 02:35:55;;;;;;;;;;;;;;;6.11;100.00;95723.88;5036339;28;19929;-90
2023/03/26 02:38:26;;;;;;;;;;;;;;;6.11;100.00;95723.88;5052056;28;20008;-88
2023/03/26 02:40:54;;;;;;;;;;;;;;;6.11;100.00;95716.66;5034944;28;20024;-90
2023/03/26 02:43:24;;;;;;;;;;;;;;;6.10;100.00;95714.19;5073874;28;19926;-88
2023/03/26 02:45:51;;;;;;;;;;;;;;;6.08;100.00;95709.84;5076767;28;19947;-88
2023/03/26 02:48:40;;;;;;;;;;;;;;;6.16;100.00;95713.31;5042338;28;19935;-89
2023/03/26 02:51:26;;;;;;;;;;;;;;;6.22;100.00;95705.22;5082425;28;19974;-88
2023/03/26 02:54:01;;;;;;;;;;;;;;;6.30;100.00;95690.69;5047760;28;19926;-90
2023/03/26 02:56:44;;;;;;;;;;;;;;;6.23;100.00;95679.22;5072906;28;19931;-88
2023/03/26 02:59:30;;;;;;;;;;;;;;;6.21;100.00;95662.56;5076730;28;19948;-89
2023/03/26 03:02:27;;;;;;;;;;;;;;;6.25;100.00;95650.34;5050988;28;19931;-89
2023/03/26 03:05:00;;;;;;;;;;;;;;;6.29;100.00;95662.28;5072674;28;20009;-90
2023/03/26 03:07:31;;;;;;;;;;;;;;;6.32;100.00;95651.09;5041718;28;19933;-88
2023/03/26 03:10:01;;;;;;;;;;;;;;;6.35;100.00;95662.22;5040694;28;19932;-89
2023/03/26 03:12:47;;;;;;;;;;;;;;;6.39;100.00;95651.84;5047674;28;20042;-89
2023/03/26 03:15:14;;;;;;;;;;;;;;;6.44;100.00;95647.47;5081153;28;19944;-88
2023/03/26 03:17:41;;;;;;;;;;;;;;;6.50;100.00;95647.63;5077328;28;19933;-89
2023/03/26 03:20:10;;;;;;;;;;;;;;;6.51;100.00;95633.19;5075823;28;19925;-88
2023/03/26 03:22:38;;;;;;;;;;;;;;;6.59;100.00;95630.19;5041196;28;20008;-88
2023/03/26 03:25:07;;;;;;;;;;;;;;;6.56;100.00;95623.41;5047939;28;19978;-89
2023/03/26 03:27:38;;;;;;;;;;;;;;;6.59;100.00;95620.28;5070558;28;20039;-89
2023/03/26 03:30:13;;;;;;;;;;;;;;;6.58;100.00;95625.88;5068458;28;19995;-87
2023/03/26 03:32:45;;;;;;;;;;;;;;;6.60;100.00;95632.66;5038930;28;19979;-88
2023/03/26 03:35:15;;;;;;;;;;;;;;;6.65;100.00;95637.34;5076448;28;19933;-89
2023/03/26 03:37:47;;;;;;;;;;;;;;;6.66;100.00;95639.00;5046348;28;19940;-88
2023/03/26 03:40:13;;;;;;;;;;;;;;;6.64;100.00;95638.38;5053975;28;19928;-88
2023/03/26 03:42:41;;;;;;;;;;;;;;;6.62;100.00;95630.59;5077970;28;20020;-89
2023/03/26 03:45:10;;;;;;;;;;;;;;;6.72;100.00;95619.34;5043257;28;19936;-89
2023/03/26 03:47:51;;;;;;;;;;;;;;;6.80;100.00;95617.16;5047212;28;19928;-87
2023/03/26 03:50:26;;;;;;;;;;;;;;;6.87;100.00;95608.22;5044795;28;19925;-88
2023/03/26 03:53:17;;;;;;;;;;;;;;;6.87;100.00;95589.44;5045548;28;20011;-88
2023/03/26 03:55:51;;;;;;;;;;;;;;;6.82;100.00;95593.59;5050644;28;19988;-89
2023/03/26 03:58:21;;;;;;;;;;;;;;;6.86;100.00;95588.63;5068628;28;19925;-89
2023/03/26 04:00:49;;;;;;;;;;;;;;;6.89;100.00;95582.78;5067533;28;19932;-89
2023/03/26 04:03:45;;;;;;;;;;;;;;;6.95;100.00;95583.75;5045858;28;19936;-89
2023/03/26 04:06:17;;;;;;;;;;;;;;;6.90;100.00;95587.09;5064116;28;19948;-88
2023/03/26 04:08:45;;;;;;;;;;;;;;;6.89;100.00;95574.72;5066777;28;20027;-87
2023/03/26 04:11:12;;;;;;;;;;;;;;;6.89;100.00;95582.78;5056979;28;19932;-89
2023/03/26 04:13:58;;;;;;;;;;;;;;;6.91;100.00;95571.81;5031346;28;20022;-87
2023/03/26 04:16:33;;;;;;;;;;;;;;;6.96;100.00;95569.31;5071307;28;19939;-89
2023/03/26 04:19:02;;;;;;;;;;;;;;;6.97;100.00;95568.25;5079815;28;19947;-90
2023/03/26 04:21:30;;;;;;;;;;;;;;;6.98;100.00;95567.19;5046158;28;19929;-88
2023/03/26 04:23:57;;;;;;;;;;;;;;;7.04;100.00;95566.31;5055625;28;19929;-88
2023/03/26 04:26:48;;;;;;;;;;;;;;;7.04;100.00;95558.25;5034905;28;19929;-88
2023/03/26 04:29:19;;;;;;;;;;;;;;;7.04;100.00;95563.63;5069733;28;19925;-89
2023/03/26 04:31:49;;;;;;;;;;;;;;;7.05;100.00;95562.56;5060641;28;19949;-89
2023/03/26 04:34:22;;;;;;;;;;;;;;;7.01;100.00;95554.13;5043931;28;19936;-89
2023/03/26 04:36:58;;;;;;;;;;;;;;;6.96;100.00;95563.94;5041895;28;19933;-88
2023/03/26 04:39:32;;;;;;;;;;;;;;;6.94;100.00;95544.53;5070024;28;19959;-89
2023/03/26 04:42:27;;;;;;;;;;;;;;;6.90;100.00;95546.03;5035642;28;19980;-88
2023/03/26 04:45:22;;;;;;;;;;;;;;;6.82;100.00;95531.06;5037791;28;19924;-89
2023/03/26 04:47:54;;;;;;;;;;;;;;;6.80;100.00;95538.53;5039792;28;19936;-89
2023/03/26 04:50:21;;;;;;;;;;;;;;;6.78;100.00;95528.03;5079537;28;19933;-87
2023/03/26 04:52:50;;;;;;;;;;;;;;;6.80;100.00;95528.59;5037710;28;20695;-88
2023/03/26 04:55:39;;;;;;;;;;;;;;;6.88;100.00;95505.22;5045075;28;19978;-88
2023/03/26 04:58:16;;;;;;;;;;;;;;;6.94;100.00;95489.00;5037028;28;19976;-86
2023/03/26 05:01:00;;;;;;;;;;;;;;;6.97;100.00;95479.69;5039811;28;19933;-88
2023/03/26 05:03:30;;;;;;;;;;;;;;;7.01;100.00;95462.06;5047856;28;20024;-90
2023/03/26 05:05:58;;;;;;;;;;;;;;;7.00;100.00;95455.06;5072358;28;20052;-88
2023/03/26 05:08:27;;;;;;;;;;;;;;;6.96;100.00;95464.63;5052277;28;19971;-88
2023/03/26 05:10:55;;;;;;;;;;;;;;;6.90;100.00;95444.06;5079380;28;19924;-88
2023/03/26 05:13:29;;;;;;;;;;;;;;;6.83;100.00;95412.78;5044446;28;19950;-89
2023/03/26 05:16:00;;;;;;;;;;;;;;;6.77;100.00;95397.63;5078805;28;19932;-88
2023/03/26 05:18:54;;;;;;;;;;;;;;;6.74;100.00;95387.34;5056760;28;19974;-88
2023/03/26 05:21:21;;;;;;;;;;;;;;;6.76;100.00;95363.78;5051248;28;20005;-88
2023/03/26 05:23:50;;;;;;;;;;;;;;;6.76;100.00;95361.09;5052389;28;19954;-88
2023/03/26 05:26:19;;;;;;;;;;;;;;;6.81;100.00;95374.63;5069846;28;20035;-88
2023/03/26 05:28:45;;;;;;;;;;;;;;;6.82;100.00;95376.25;5043612;28;19988;-90
2023/03/26 05:31:36;;;;;;;;;;;;;;;6.84;100.00;95398.31;5039418;28;19928;-88
2023/03/26 05:34:05;;;;;;;;;;;;;;;6.88;100.00;95392.50;5080229;28;19925;-88
2023/03/26 05:36:32;;;;;;;;;;;;;;;6.92;100.00;95383.75;5051580;28;19952;-89
2023/03/26 05:39:24;;;;;;;;;;;;;;;6.98;100.00;95411.53;5040044;28;19925;-89
2023/03/26 05:42:11;;;;;;;;;;;;;;;7.05;100.00;95412.25;5040174;28;19948;-89
2023/03/26 05:45:11;;;;;;;;;;;;;;;6.96;100.00;95395.69;5032458;28;19974;-89
2023/03/26 05:47:38;;;;;;;;;;;;;;;6.94;100.00;95386.22;5047881;28;19968;-89
2023/03/26 05:50:06;;;;;;;;;;;;;;;6.91;100.00;95378.63;5072956;28;19960;-88
2023/03/26 05:52:35;;;;;;;;;;;;;;;6.91;100.00;95376.75;5074205;28;19925;-89
2023/03/26 05:55:41;;;;;;;;;;;;;;;6.94;100.00;95365.56;5038501;28;19929;-89
2023/03/26 05:58:27;;;;;;;;;;;;;;;6.94;100.00;95372.78;5036755;28;19931;-88
2023/03/26 06:01:15;;;;;;;;;;;;;;;6.93;100.00;95379.22;5049778;28;19936;-88
2023/03/26 06:04:02;;;;;;;;;;;;;;;6.94;100.00;95370.13;5041056;28;19925;-89
2023/03/26 06:06:34;;;;;;;;;;;;;;;6.95;100.00;95355.66;5046451;28;19924;-88
2023/03/26 06:09:00;;;;;;;;;;;;;;;6.95;100.00;95369.88;5059043;28;19972;-89
2023/03/26 06:11:28;;;;;;;;;;;;;;;6.91;100.00;95344.56;5074555;28;19935;-89
2023/03/26 06:13:55;;;;;;;;;;;;;;;6.87;100.00;95326.47;5037252;28;19925;-88
2023/03/26 06:16:22;;;;;;;;;;;;;;;6.87;100.00;95335.34;5045567;28;19948;-88
2023/03/26 06:18:56;;;;;;;;;;;;;;;6.92;100.00;95342.69;5050485;28;19979;-88
2023/03/26 06:21:45;;;;;;;;;;;;;;;7.05;100.00;95362.09;5051050;28;19932;-88
2023/03/26 06:24:18;;;;;;;;;;;;;;;7.07;100.00;95345.72;5077851;28;19960;-89
2023/03/26 06:27:21;;;;;;;;;;;;;;;7.16;100.00;95328.22;5062528;28;19960;-88
2023/03/26 06:29:47;;;;;;;;;;;;;;;7.24;100.00;95325.19;5043063;28;19960;-88
2023/03/26 06:32:53;;;;;;;;;;;;;;;7.29;100.00;95319.94;5038968;28;19929;-88
2023/03/26 06:35:28;;;;;;;;;;;;;;;7.32;100.00;95340.94;5080821;28;19928;-89
2023/03/26 06:37:56;;;;;;;;;;;;;;;7.33;100.00;95336.38;5082396;28;19972;-88
2023/03/26 06:40:23;;;;;;;;;;;;;;;7.31;100.00;95342.03;5066855;28;19924;-89
2023/03/26 06:42:57;;;;;;;;;;;;;;;7.31;100.00;95344.69;5050211;28;19932;-88
2023/03/26 06:45:50;;;;;;;;;;;;;;;7.31;100.00;95355.44;5032167;28;19929;-89
2023/03/26 06:48:29;;;;;;;;;;;;;;;7.30;100.00;95369.09;5036663;28;19925;-89
2023/03/26 06:51:13;;;;;;;;;;;;;;;7.24;100.00;95376.19;5040378;28;20024;-86
2023/03/26 06:53:58;;;;;;;;;;;;;;;7.21;100.00;95368.63;5040100;28;19952;-88
2023/03/26 06:56:43;;;;;;;;;;;;;;;7.22;100.00;95370.28;5048332;28;19936;-87
2023/03/26 06:59:25;;;;;;;;;;;;;;;7.19;100.00;95400.25;5071815;28;19978;-87
2023/03/26 07:02:11;;;;;;;;;;;;;;;7.28;100.00;95414.97;5041940;28;19944;-89
2023/03/26 07:04:57;;;;;;;;;;;;;;;7.33;100.00;95422.31;5039581;28;19939;-89
2023/03/26 07:07:42;;;;;;;;;;;;;;;7.31;100.00;95441.38;5045288;28;19936;-89
2023/03/26 07:10:38;;;;;;;;;;;;;;;7.29;100.00;95456.88;5041412;28;19947;-88
2023/03/26 07:13:14;;;;;;;;;;;;;;;7.30;100.00;95469.25;5058801;28;19979;-89
2023/03/26 07:16:17;;;;;;;;;;;;;;;7.25;100.00;95471.81;5042070;28;19947;-87
2023/03/26 07:19:03;;;;;;;;;;;;;;;7.21;100.00;95465.28;5047386;28;19932;-88
2023/03/26 07:21:34;;;;;;;;;;;;;;;7.22;100.00;95448.13;5083166;28;19967;-88
2023/03/26 07:24:09;;;;;;;;;;;;;;;7.26;100.00;95449.28;5046738;28;19933;-86
2023/03/26 07:26:56;;;;;;;;;;;;;;;7.29;100.00;95446.16;5045515;28;19924;-86
2023/03/26 07:29:32;;;;;;;;;;;;;;;7.32;100.00;95451.03;5070574;28;19935;-86
2023/03/26 07:32:11;;;;;;;;;;;;;;;7.35;100.00;95439.84;5071495;28;19925;-86
2023/03/26 07:35:01;;;;;;;;;;;;;;;7.22;100.00;95440.88;5039621;28;19932;-82
2023/03/26 07:38:02;;;;;;;;;;;;;;;7.21;100.00;95441.13;5043336;28;19932;-86
2023/03/26 07:40:50;;;;;;;;;;;;;;;7.21;100.00;95441.13;5047817;28;19988;-86
2023/03/26 07:43:50;;;;;;;;;;;;;;;7.23;100.00;95441.69;5037340;28;19943;-87
2023/03/26 07:46:52;;;;;;;;;;;;;;;7.23;100.00;95418.34;5074033;28;19925;-87
2023/03/26 07:49:49;;;;;;;;;;;;;;;7.17;100.00;95416.59;5047608;28;19927;-87
2023/03/26 07:52:31;;;;;;;;;;;;;;;7.16;100.00;95411.44;5042887;28;19990;-86
2023/03/26 07:55:07;;;;;;;;;;;;;;;7.09;100.00;95402.69;5075530;28;20161;-84
2023/03/26 07:57:57;;;;;;;;;;;;;;;7.03;100.00;95399.06;5036874;28;19936;-84
2023/03/26 08:00:55;;;;;;;;;;;;;;;7.08;100.00;95396.50;5076449;28;19925;-87
2023/03/26 08:03:27;;;;;;;;;;;;;;;7.04;100.00;95389.97;5067797;28;19925;-86
2023/03/26 08:06:02;;;;;;;;;;;;;;;7.06;100.00;95379.00;5038698;28;19978;-87
2023/03/26 08:08:42;;;;;;;;;;;;;;;7.05;100.00;95372.81;5067022;28;19929;-86
2023/03/26 08:11:33;;;;;;;;;;;;;;;7.12;100.00;95351.22;5040302;28;19936;-83
2023/03/26 08:14:07;;;;;;;;;;;;;;;7.18;100.00;95359.16;5067624;28;19987;-86
2023/03/26 08:16:39;;;;;;;;;;;;;;;7.26;100.00;95349.13;5063438;28;19933;-87
2023/03/26 08:19:15;;;;;;;;;;;;;;;7.25;100.00;95350.97;5062983;28;20048;-87
2023/03/26 08:21:54;;;;;;;;;;;;;;;7.24;100.00;95360.09;5065516;28;19952;-86
2023/03/26 08:24:28;;;;;;;;;;;;;;;7.34;100.00;95362.19;5072675;28;19956;-86
2023/03/26 08:27:00;;;;;;;;;;;;;;;7.35;100.00;95379.94;5064461;28;20086;-85
2023/03/26 08:29:34;;;;;;;;;;;;;;;7.32;100.00;95405.38;5063636;28;19936;-87
2023/03/26 08:32:03;;;;;;;;;;;;;;;7.28;100.00;95416.84;5067439;28;19929;-87
2023/03/26 08:34:30;;;;;;;;;;;;;;;7.29;100.00;95421.97;5036994;28;19975;-85
2023/03/26 08:36:58;;;;;;;;;;;;;;;7.29;100.00;95410.41;5073381;28;20028;-87
2023/03/26 08:39:26;;;;;;;;;;;;;;;7.31;100.00;95419.88;5035569;28;19932;-87
2023/03/26 08:42:06;;;;;;;;;;;;;;;7.24;100.00;95416.47;5074717;28;19936;-85
2023/03/26 08:44:53;;;;;;;;;;;;;;;7.20;100.00;95426.06;5077237;28;19974;-86
2023/03/26 08:47:38;;;;;;;;;;;;;;;7.21;100.00;95417.78;5045454;28;19939;-85
2023/03/26 08:50:22;;;;;;;;;;;;;;;7.27;100.00;95424.06;5071882;28;19983;-86
2023/03/26 08:53:03;;;;;;;;;;;;;;;7.27;100.00;95437.50;5071447;28;19957;-85
2023/03/26 08:58:39;;;;;;;;;;;;;;;7.25;100.00;95452.19;5067652;27;19933;-79
2023/03/26 09:01:17;;;;;;;;;;;;;;;7.23;100.00;95452.41;5064604;28;19932;-78
2023/03/26 09:03:53;;;;;;;;;;;;;;;7.16;100.00;95452.53;5040312;28;19956;-79
2023/03/26 09:06:35;;;;;;;;;;;;;;;7.15;100.00;95458.13;5033569;28;19925;-78
2023/03/26 09:09:24;;;;;;;;;;;;;;;7.19;100.00;95470.06;5071752;28;19926;-79
2023/03/26 09:12:03;;;;;;;;;;;;;;;7.14;100.00;95478.00;5050835;28;20142;-79
2023/03/26 09:14:45;;;;;;;;;;;;;;;7.10;100.00;95480.31;5046558;28;19972;-79
2023/03/26 09:17:33;;;;;;;;;;;;;;;7.02;100.00;95487.88;5038960;28;19953;-78
2023/03/26 09:20:22;;;;;;;;;;;;;;;7.02;100.00;95493.22;5033579;28;19964;-78
2023/03/26 09:23:08;;;;;;;;;;;;;;;7.04;100.00;95493.81;5034854;28;20066;-78
2023/03/26 09:25:42;;;;;;;;;;;;;;;7.08;100.00;95476.19;5029437;28;19961;-79
2023/03/26 09:28:25;;;;;;;;;;;;;;;7.05;100.00;95471.31;5057446;28;19929;-79
2023/03/26 09:31:00;;;;;;;;;;;;;;;7.03;100.00;95476.09;5052123;28;19926;-79
2023/03/26 09:33:45;;;;;;;;;;;;;;;7.05;100.00;95482.88;5038205;28;20015;-79
2023/03/26 09:36:32;;;;;;;;;;;;;;;7.01;100.00;95483.53;5029782;28;19925;-79
2023/03/26 09:39:08;;;;;;;;;;;;;;;6.98;100.00;95495.53;5036191;28;19925;-79
2023/03/26 09:41:40;;;;;;;;;;;;;;;7.03;100.00;95508.28;5039942;28;20018;-79
2023/03/26 09:44:34;;;;;;;;;;;;;;;7.05;100.00;95511.56;5036127;28;19925;-80
2023/03/26 09:47:33;;;;;;;;;;;;;;;7.09;100.00;95512.75;5026607;28;21174;-79
2023/03/26 09:50:13;;;;;;;;;;;;;;;7.09;100.00;95518.09;5042283;28;19925;-80
2023/03/26 09:52:54;;;;;;;;;;;;;;;7.05;100.00;95506.22;5042502;28;19975;-79
2023/03/26 09:55:31;;;;;;;;;;;;;;;7.04;100.00;95510.75;5058905;28;19925;-79
2023/03/26 09:58:07;;;;;;;;;;;;;;;7.06;100.00;95514.00;5042244;28;19932;-80
2023/03/26 10:00:40;;;;;;;;;;;;;;;7.12;100.00;95504.25;5034533;28;19925;-79
2023/03/26 10:03:28;;;;;;;;;;;;;;;7.09;100.00;95475.97;5042136;28;19925;-79
2023/03/26 10:06:03;;;;;;;;;;;;;;;7.13;100.00;95457.56;5034048;28;19952;-79
2023/03/26 10:08:46;;;;;;;;;;;;;;;7.25;100.00;95462.94;5034440;28;19957;-79
2023/03/26 10:11:17;;;;;;;;;;;;;;;7.55;100.00;95464.50;5028973;28;19930;-79
2023/03/26 10:13:52;;;;;;;;;;;;;;;7.89;100.00;95454.81;5056223;28;19959;-80
2023/03/26 10:16:24;;;;;;;;;;;;;;;7.81;100.00;95447.09;5029581;28;19925;-79
2023/03/26 10:19:00;;;;;;;;;;;;;;;7.75;100.00;95442.66;5022788;28;20023;-79
2023/03/26 10:21:35;;;;;;;;;;;;;;;7.99;100.00;95438.09;5017671;28;19929;-79
2023/03/26 10:24:20;;;;;;;;;;;;;;;8.25;100.00;95436.75;5020306;28;19969;-79
2023/03/26 10:26:58;;;;;;;;;;;;;;;8.40;100.00;95434.41;5025065;28;19979;-79
2023/03/26 10:29:40;;;;;;;;;;;;;;;8.58;100.00;95419.94;5028196;28;20018;-79
2023/03/26 10:32:16;;;;;;;;;;;;;;;8.73;100.00;95412.16;5024879;28;20016;-79
2023/03/26 10:34:58;;;;;;;;;;;;;;;8.75;100.00;95407.34;5019959;28;19949;-79
2023/03/26 10:37:29;;;;;;;;;;;;;;;8.73;100.00;95417.53;5040762;28;20096;-79
2023/03/26 10:40:06;;;;;;;;;;;;;;;8.75;100.00;95426.19;5029339;28;19925;-80
2023/03/26 10:42:44;;;;;;;;;;;;;;;8.65;100.00;95440.28;5023254;28;19936;-80
2023/03/26 10:45:35;;;;;;;;;;;;;;;8.66;100.00;95449.16;5022822;28;19968;-80
2023/03/26 10:48:13;;;;;;;;;;;;;;;8.58;100.00;95447.66;5005919;28;19979;-80
2023/03/26 10:50:50;;;;;;;;;;;;;;;8.45;100.00;95456.00;5014796;28;19932;-79
2023/03/26 10:53:25;;;;;;;;;;;;;;;8.32;100.00;95451.72;5028187;28;19930;-79
2023/03/26 10:55:55;;;;;;;;;;;;;;;8.37;100.00;95447.50;5027680;28;20019;-79
2023/03/26 10:58:23;;;;;;;;;;;;;;;8.37;100.00;95456.38;5028768;28;19925;-79
2023/03/26 11:00:54;;;;;;;;;;;;;;;8.44;100.00;95451.69;5023093;28;19926;-81
2023/03/26 11:03:31;;;;;;;;;;;;;;;8.48;100.00;95441.25;5027661;28;19975;-80
2023/03/26 11:06:04;;;;;;;;;;;;;;;8.52;100.00;95442.41;5040000;28;20005;-80
2023/03/26 11:08:35;;;;;;;;;;;;;;;8.63;100.00;95438.88;5022320;28;19925;-80
2023/03/26 11:11:09;;;;;;;;;;;;;;;8.66;100.00;95443.78;5028568;28;19976;-80
2023/03/26 11:13:43;;;;;;;;;;;;;;;8.73;100.00;95465.97;5026379;28;19925;-80
2023/03/26 11:16:14;;;;;;;;;;;;;;;8.70;100.00;95461.06;5019988;28;19932;-80
2023/03/26 11:18:46;;;;;;;;;;;;;;;8.69;100.00;95460.25;5018524;28;20034;-80
2023/03/26 11:21:15;;;;;;;;;;;;;;;8.69;100.00;95454.84;5017681;28;19932;-80
2023/03/26 11:23:50;;;;;;;;;;;;;;;8.60;100.00;95439.34;5018745;28;19926;-80
2023/03/26 11:26:23;;;;;;;;;;;;;;;8.55;100.00;95448.13;5034676;28;20008;-80
2023/03/26 11:29:11;;;;;;;;;;;;;;;8.51;100.00;95454.22;5030556;28;20024;-80
2023/03/26 11:31:44;;;;;;;;;;;;;;;8.52;100.00;95456.69;5025995;28;19925;-78
2023/03/26 11:34:13;;;;;;;;;;;;;;;8.53;100.00;95457.50;5027855;28;19932;-78
2023/03/26 11:36:42;;;;;;;;;;;;;;;8.56;100.00;95465.91;5028682;28;19925;-78
2023/03/26 11:39:12;;;;;;;;;;;;;;;8.47;100.00;95459.28;5019715;28;19929;-79
2023/03/26 11:41:40;;;;;;;;;;;;;;;8.38;100.00;95446.44;5024221;28;19926;-78
2023/03/26 11:44:30;;;;;;;;;;;;;;;8.31;100.00;95463.53;5016351;28;19979;-78
2023/03/26 11:47:02;;;;;;;;;;;;;;;8.28;100.00;95473.91;5028820;28;20001;-78
2023/03/26 11:49:29;;;;;;;;;;;;;;;8.28;100.00;95463.16;5022723;28;19930;-78
2023/03/26 11:51:56;;;;;;;;;;;;;;;8.27;100.00;95456.13;5026405;28;19932;-80
2023/03/26 11:54:22;;;;;;;;;;;;;;;8.31;100.00;95463.53;5024070;28;19968;-80
2023/03/26 11:56:53;;;;;;;;;;;;;;;8.25;100.00;95461.75;5023752;28;19925;-80
2023/03/26 11:59:24;;;;;;;;;;;;;;;8.24;100.00;95462.00;5024483;28;19932;-80
2023/03/26 12:01:51;;;;;;;;;;;;;;;8.24;100.00;95448.56;5022218;28;19955;-80
2023/03/26 12:04:19;;;;;;;;;;;;;;;8.20;100.00;95455.44;5019133;28;19932;-80
2023/03/26 12:06:51;;;;;;;;;;;;;;;8.24;100.00;95460.13;5023327;28;19930;-80
2023/03/26 12:09:17;;;;;;;;;;;;;;;8.29;100.00;95464.78;5023514;28;20846;-80
2023/03/26 12:11:48;;;;;;;;;;;;;;;8.31;100.00;95447.41;5019705;28;19936;-80
2023/03/26 12:14:18;;;;;;;;;;;;;;;8.29;100.00;95432.50;5016134;28;19929;-80
2023/03/26 12:16:58;;;;;;;;;;;;;;;8.24;100.00;95427.03;5023390;28;19925;-80
2023/03/26 12:19:27;;;;;;;;;;;;;;;8.28;100.00;95447.00;5026903;28;19925;-80
2023/03/26 12:21:54;;;;;;;;;;;;;;;8.28;100.00;95439.75;5010425;28;19925;-78
2023/03/26 12:24:27;;;;;;;;;;;;;;;9.29;100.00;95415.78;5029293;28;19925;-74
2023/03/26 12:26:56;;;;;;;;;;;;;;;9.70;100.00;95428.84;5024077;28;19925;-75
2023/03/26 12:29:26;;;;;;;;;;;;;;;10.04;100.00;95426.06;5014978;28;19926;-77
2023/03/26 12:31:55;;;;;;;;;;;;;;;10.19;100.00;95419.06;5025058;28;19925;-76
2023/03/26 12:34:22;;;;;;;;;;;;;;;9.96;100.00;95424.63;5027149;28;19983;-76
2023/03/26 12:36:52;;;;;;;;;;;;;;;9.69;100.00;95434.50;5020339;28;19940;-77
2023/03/26 12:39:33;;;;;;;;;;;;;;;9.34;100.00;95424.78;5011534;28;19941;-78
2023/03/26 12:42:00;;;;;;;;;;;;;;;9.07;100.00;95400.38;5018557;28;19929;-78
2023/03/26 12:44:30;;;;;;;;;;;;;;;8.78;100.00;95398.78;5024498;28;19948;-77
2023/03/26 12:47:14;;;;;;;;;;;;;;;8.69;100.00;95394.84;5022854;28;19936;-77
2023/03/26 12:49:41;;;;;;;;;;;;;;;8.57;100.00;95384.16;5031356;28;19932;-76
2023/03/26 12:52:25;;;;;;;;;;;;;;;8.44;100.00;95387.13;5020297;28;19930;-77
2023/03/26 12:54:56;;;;;;;;;;;;;;;8.37;100.00;95391.81;5020043;28;19972;-77
2023/03/26 12:57:25;;;;;;;;;;;;;;;8.32;100.00;95386.34;5019931;28;19936;-77
2023/03/26 13:00:20;;;;;;;;;;;;;;;8.18;100.00;95375.00;5017429;28;19972;-77
2023/03/26 13:03:01;;;;;;;;;;;;;;;8.05;100.00;95382.53;5025490;28;19925;-78
2023/03/26 13:05:42;;;;;;;;;;;;;;;8.12;100.00;95369.78;5038799;28;20035;-78
2023/03/26 13:08:31;;;;;;;;;;;;;;;8.18;100.00;95371.50;5013169;28;19932;-78
2023/03/26 13:11:05;;;;;;;;;;;;;;;8.16;100.00;95362.88;5022410;28;19925;-79
2023/03/26 13:13:51;;;;;;;;;;;;;;;8.26;100.00;95358.50;5019406;28;19930;-78
2023/03/26 13:16:23;;;;;;;;;;;;;;;8.18;100.00;95348.13;5017500;28;19961;-78
2023/03/26 13:18:53;;;;;;;;;;;;;;;8.22;100.00;95343.91;5024212;28;20028;-78
2023/03/26 13:21:27;;;;;;;;;;;;;;;8.10;100.00;95327.00;5027388;28;19926;-79
2023/03/26 13:23:58;;;;;;;;;;;;;;;8.15;100.00;95316.34;5016346;28;19925;-80
2023/03/26 13:26:30;;;;;;;;;;;;;;;8.26;100.00;95302.03;5029340;28;19930;-80
2023/03/26 13:29:03;;;;;;;;;;;;;;;8.27;100.00;95286.72;5021253;28;19933;-80
2023/03/26 13:31:32;;;;;;;;;;;;;;;8.15;100.00;95269.84;5024557;28;19933;-79
2023/03/26 13:34:03;;;;;;;;;;;;;;;8.33;100.00;95272.34;5026268;28;19925;-80